Syracuse, NY

7:39 AM EST on February 21, 2017 (GMT -0500)
Syracuse Hancock International | | Change Station

Elev 420 ft 43.11 °N, 76.11 °W | Updated 45 minutes ago

Mostly Cloudy
Mostly Cloudy
26 °F
Feels Like 16 °F
N
10
Wind Variable Wind from East

Today
High -- | Low -- °F
--% Chance of Precip.
Yesterday
High -- | Low -- °F
Precip. -- in
Pressure 30.24 in
Visibility 10.0 miles
Clouds Scattered Clouds 18000 ft
Mostly Cloudy 20000 ft
Windchill 16 °F
Dew Point 17 °F
Humidity 69%
Rainfall 0.00 in
Snow Depth Not available.
6:52 AM 5:43 PM
Waning Crescent, 25% visible
METAR KSYR 211154Z 08009KT 10SM SCT180 BKN200 M03/M08 A3023 RMK AO2 SLP239 4/002 T10331083 11033 21061 56019
Pressure 30.24 in
Visibility 10.0 miles
Clouds Scattered Clouds 18000 ft
Mostly Cloudy 20000 ft
Windchill 16 °F
Dew Point 17 °F
Humidity 69%
Rainfall 0.00 in
Snow Depth Not available.
6:52 AM 5:43 PM
Waning Crescent, 25% visible
METAR KSYR 211154Z 08009KT 10SM SCT180 BKN200 M03/M08 A3023 RMK AO2 SLP239 4/002 T10331083 11033 21061 56019

Get Your Daily Forecast Email!

Thanks for signing up!

Be on the lookout for a verification email in your inbox.

You'll start receiving the daily forecast at 8 AM.

×

10-Day Weather Forecast

Almanac

Astronomy

Feb. 21, 2017 Rise Set
Actual Time
Civil Twilight
Nautical Twilight
Astronomical Twilight
Moon
Length of Visible Light
Length of Day
Tomorrow will be .
, % of the Moon is Illuminated

Today's Extremes

State Highs State Lows

Community

WunderPhotos

Upload Photos

1,962,540 photos uploaded!

WunderBlog® & News

Nearby

Air Quality

  Air Quality AQ Index Pollutant
Not available.

Snow Depth

Station Depth Elevation

Earthquake Activity

City Distance Mag. Time & Date
Minimum magnitude displayed is 2.5.

Coastal Water Temperatures

Place Temperature

Stations

Nearby Weather Stations

Station Location Temp. Windchill Dew Point Humidity Wind Precip. Elev Updated Type
                   

Watches & Warnings

There are currently no watches in effect.